createdAt,value
2023-03-02T00:01:51.514Z,102858.53
2023-03-02T00:04:26.686Z,102843.56
2023-03-02T00:06:58.704Z,102870.69
2023-03-02T00:09:25.736Z,102850.47
2023-03-02T00:11:52.923Z,102876.38
2023-03-02T00:14:19.888Z,102853.09
2023-03-02T00:16:47.060Z,102827.09
2023-03-02T00:19:14.119Z,102817.59
2023-03-02T00:21:44.257Z,102837.38
2023-03-02T00:24:11.319Z,102855.00
2023-03-02T00:26:38.145Z,102866.38
2023-03-02T00:29:05.409Z,102831.75
2023-03-02T00:31:32.598Z,102861.34
2023-03-02T00:33:59.541Z,102817.00
2023-03-02T00:36:26.438Z,102857.59
2023-03-02T00:38:53.757Z,102825.22
2023-03-02T00:41:21.888Z,102846.16
2023-03-02T00:43:49.386Z,102816.41
2023-03-02T00:46:22.727Z,102856.13
2023-03-02T00:48:50.614Z,102845.56
2023-03-02T00:51:18.130Z,102846.41
2023-03-02T00:53:48.746Z,102846.00
2023-03-02T00:56:15.694Z,102818.97
2023-03-02T00:58:42.637Z,102807.75
2023-03-02T01:01:12.372Z,102829.94
2023-03-02T01:03:39.421Z,102822.16
2023-03-02T01:06:06.893Z,102838.16
2023-03-02T01:08:33.987Z,102795.97
2023-03-02T01:11:01.643Z,102831.19
2023-03-02T01:13:29.118Z,102817.91
2023-03-02T01:16:05.317Z,102829.91
2023-03-02T01:18:33.335Z,102791.75
2023-03-02T01:21:05.866Z,102790.44
2023-03-02T01:23:33.388Z,102795.94
2023-03-02T01:26:03.409Z,102815.56
2023-03-02T01:28:30.326Z,102813.03
2023-03-02T01:30:57.416Z,102774.22
2023-03-02T01:33:24.459Z,102799.75
2023-03-02T01:35:51.548Z,102798.25
2023-03-02T01:38:18.628Z,102760.03
2023-03-02T01:40:48.388Z,102799.31
2023-03-02T01:43:16.659Z,102804.19
2023-03-02T01:45:57.591Z,102802.66
2023-03-02T01:48:40.041Z,102773.16
2023-03-02T01:51:08.194Z,102792.75
2023-03-02T01:53:37.216Z,102792.13
2023-03-02T01:56:05.166Z,102762.81
2023-03-02T01:58:37.088Z,102795.28
2023-03-02T02:01:04.832Z,102790.44
2023-03-02T02:03:32.434Z,102776.94
2023-03-02T02:06:39.167Z,102792.34
2023-03-02T02:09:09.752Z,102742.34
2023-03-02T02:11:37.099Z,102790.00
2023-03-02T02:14:04.506Z,102787.28
2023-03-02T02:16:34.165Z,102782.00
2023-03-02T02:19:02.050Z,102743.19
2023-03-02T02:21:29.165Z,102735.59
2023-03-02T02:24:14.920Z,102780.72
2023-03-02T02:26:49.813Z,102743.84
2023-03-02T02:29:27.304Z,102742.56
2023-03-02T02:32:07.055Z,102761.13
2023-03-02T02:34:41.595Z,102766.41
2023-03-02T02:37:24.183Z,102753.94
2023-03-02T02:39:52.028Z,102749.09
2023-03-02T02:42:24.653Z,102775.03
2023-03-02T02:44:55.285Z,102757.88
2023-03-02T02:47:23.220Z,102758.72
2023-03-02T02:49:55.202Z,102768.25
2023-03-02T02:52:27.304Z,102747.56
2023-03-02T02:54:57.713Z,102770.56
2023-03-02T02:57:29.388Z,102768.28
2023-03-02T02:59:59.556Z,102756.03
2023-03-02T03:02:31.208Z,102770.59
2023-03-02T03:05:03.035Z,102711.06
2023-03-02T03:07:32.196Z,102774.59
2023-03-02T03:10:18.173Z,102763.88
2023-03-02T03:12:46.470Z,102764.28
2023-03-02T03:15:14.870Z,102766.81
2023-03-02T03:17:46.947Z,102763.66
2023-03-02T03:20:16.781Z,102755.19
2023-03-02T03:22:43.731Z,102758.38
2023-03-02T03:25:15.022Z,102762.56
2023-03-02T03:27:43.369Z,102767.63
2023-03-02T03:30:14.314Z,102757.53
2023-03-02T03:32:41.385Z,102758.38
2023-03-02T03:35:11.909Z,102754.56
2023-03-02T03:37:40.715Z,102760.91
2023-03-02T03:40:09.957Z,102751.84
2023-03-02T03:42:38.571Z,102764.50
2023-03-02T03:45:10.103Z,102732.00
2023-03-02T03:47:37.523Z,102682.31
2023-03-02T03:50:04.706Z,102737.41
2023-03-02T03:52:31.836Z,102762.97
2023-03-02T03:55:02.301Z,102763.84
2023-03-02T03:57:29.946Z,102774.41
2023-03-02T03:59:57.081Z,102733.50
2023-03-02T04:02:24.002Z,102730.31
2023-03-02T04:04:53.520Z,102771.03
2023-03-02T04:07:20.786Z,102767.22
2023-03-02T04:09:47.634Z,102755.66
2023-03-02T04:12:14.610Z,102770.00
2023-03-02T04:14:41.792Z,102757.13
2023-03-02T04:17:08.762Z,102701.22
2023-03-02T04:19:35.722Z,102725.06
2023-03-02T04:22:04.446Z,102765.34
2023-03-02T04:24:32.053Z,102771.25
2023-03-02T04:26:59.010Z,102771.28
2023-03-02T04:29:26.131Z,102736.03
2023-03-02T04:31:53.409Z,102766.84
2023-03-02T04:34:25.711Z,102745.94
2023-03-02T04:36:52.973Z,102769.97
2023-03-02T04:39:20.809Z,102736.66
2023-03-02T04:41:48.332Z,102763.25
2023-03-02T04:44:16.824Z,102749.69
2023-03-02T04:46:45.130Z,102753.69
2023-03-02T04:49:13.632Z,102780.53
2023-03-02T04:51:43.421Z,102748.66
2023-03-02T04:54:37.011Z,102756.66
2023-03-02T04:57:04.509Z,102775.84
2023-03-02T04:59:31.573Z,102744.84
2023-03-02T05:02:01.405Z,102779.25
2023-03-02T05:04:28.972Z,102779.69
2023-03-02T05:06:56.366Z,102782.22
2023-03-02T05:09:27.657Z,102784.34
2023-03-02T05:11:55.477Z,102779.28
2023-03-02T05:14:23.535Z,102783.06
2023-03-02T05:16:50.858Z,102786.84
2023-03-02T05:19:17.967Z,102785.13
2023-03-02T05:21:45.114Z,102737.88
2023-03-02T05:24:12.961Z,102789.97
2023-03-02T05:26:40.374Z,102790.66
2023-03-02T05:29:08.080Z,102737.69
2023-03-02T05:31:40.976Z,102776.94
2023-03-02T05:34:09.962Z,102784.94
2023-03-02T05:36:37.414Z,102755.97
2023-03-02T05:39:06.221Z,102793.25
2023-03-02T05:41:33.239Z,102791.09
2023-03-02T05:44:00.261Z,102781.06
2023-03-02T05:46:27.671Z,102779.88
2023-03-02T05:48:54.808Z,102773.47
2023-03-02T05:51:22.242Z,102748.31
2023-03-02T05:53:49.995Z,102742.66
2023-03-02T05:56:17.045Z,102769.56
2023-03-02T05:58:44.196Z,102744.63
2023-03-02T06:01:15.517Z,102770.19
2023-03-02T06:03:43.735Z,102735.59
2023-03-02T06:06:14.456Z,102781.34
2023-03-02T06:08:42.889Z,102772.72
2023-03-02T06:11:11.362Z,102784.31
2023-03-02T06:13:39.436Z,102782.84
2023-03-02T06:16:09.693Z,102764.22
2023-03-02T06:18:38.761Z,102788.94
2023-03-02T06:21:06.900Z,102794.84
2023-03-02T06:23:33.860Z,102788.97
2023-03-02T06:26:01.107Z,102787.06
2023-03-02T06:28:28.147Z,102779.28
2023-03-02T06:30:55.271Z,102736.84
2023-03-02T06:33:22.309Z,102741.69
2023-03-02T06:35:50.595Z,102777.75
2023-03-02T06:38:18.053Z,102779.44
2023-03-02T06:40:45.141Z,102778.53
2023-03-02T06:43:12.401Z,102783.63
2023-03-02T06:45:39.356Z,102767.56
2023-03-02T06:48:07.276Z,102786.63
2023-03-02T06:50:34.923Z,102789.38
2023-03-02T06:53:02.107Z,102790.44
2023-03-02T06:55:29.210Z,102780.75
2023-03-02T06:57:56.236Z,102749.09
2023-03-02T07:00:26.461Z,102745.09
2023-03-02T07:02:53.534Z,102774.22
2023-03-02T07:05:20.793Z,102750.78
2023-03-02T07:07:47.851Z,102779.06
2023-03-02T07:10:14.998Z,102775.88
2023-03-02T07:12:42.760Z,102782.41
2023-03-02T07:15:14.551Z,102777.59
2023-03-02T07:17:43.955Z,102782.22
2023-03-02T07:20:13.059Z,102778.41
2023-03-02T07:22:40.919Z,102773.31
2023-03-02T07:25:08.999Z,102782.22
2023-03-02T07:27:36.213Z,102775.66
2023-03-02T07:30:06.359Z,102744.03
2023-03-02T07:32:33.430Z,102720.81
2023-03-02T07:35:00.618Z,102767.88
2023-03-02T07:37:27.758Z,102773.09
2023-03-02T07:39:54.812Z,102764.16
2023-03-02T07:42:21.797Z,102768.88
2023-03-02T07:44:48.689Z,102768.63
2023-03-02T07:47:15.791Z,102766.13
2023-03-02T07:49:42.757Z,102762.06
2023-03-02T07:52:10.491Z,102759.03
2023-03-02T07:54:37.522Z,102760.31
2023-03-02T07:57:04.824Z,102762.97
2023-03-02T07:59:31.804Z,102725.91
2023-03-02T08:01:58.947Z,102764.63
2023-03-02T08:04:31.563Z,102762.31
2023-03-02T08:06:58.572Z,102762.50
2023-03-02T08:09:25.579Z,102739.88
2023-03-02T08:11:53.662Z,102763.38
2023-03-02T08:14:20.774Z,102754.38
2023-03-02T08:16:47.989Z,102753.03
2023-03-02T08:19:15.167Z,102759.38
2023-03-02T08:21:42.123Z,102747.22
2023-03-02T08:24:10.862Z,102747.41
2023-03-02T08:26:37.833Z,102755.19
2023-03-02T08:29:06.101Z,102761.53
2023-03-02T08:31:33.830Z,102756.16
2023-03-02T08:34:00.920Z,102753.44
2023-03-02T08:36:27.960Z,102750.34
2023-03-02T08:38:55.444Z,102754.78
2023-03-02T08:41:26.372Z,102757.59
2023-03-02T08:43:56.348Z,102728.75
2023-03-02T08:46:25.258Z,102758.75
2023-03-02T08:48:52.197Z,102751.19
2023-03-02T08:51:26.488Z,102753.44
2023-03-02T08:54:15.015Z,102747.47
2023-03-02T08:56:47.013Z,102745.09
2023-03-02T08:59:17.232Z,102747.22
2023-03-02T09:01:44.538Z,102743.59
2023-03-02T09:04:12.424Z,102733.97
2023-03-02T09:06:43.015Z,102732.72
2023-03-02T09:09:11.711Z,102730.63
2023-03-02T09:11:39.190Z,102710.75
2023-03-02T09:14:06.473Z,102731.50
2023-03-02T09:16:33.440Z,102733.06
2023-03-02T09:19:00.455Z,102707.94
2023-03-02T09:21:27.726Z,102717.59
2023-03-02T09:23:58.253Z,102721.75
2023-03-02T09:26:28.185Z,102734.00
2023-03-02T09:28:55.930Z,102733.88
2023-03-02T09:31:23.879Z,102732.19
2023-03-02T09:33:50.874Z,102736.03
2023-03-02T09:36:25.373Z,102734.28
2023-03-02T09:38:53.189Z,102742.09
2023-03-02T09:41:20.188Z,102742.81
2023-03-02T09:44:02.324Z,102746.69
2023-03-02T09:46:33.007Z,102752.38
2023-03-02T09:49:18.659Z,102741.66
2023-03-02T09:52:16.556Z,102740.56
2023-03-02T09:54:43.597Z,102737.72
2023-03-02T09:57:37.698Z,102736.41
2023-03-02T10:00:19.124Z,102732.31
2023-03-02T10:02:54.209Z,102717.13
2023-03-02T10:05:31.977Z,102728.09
2023-03-02T10:07:59.539Z,102736.41
2023-03-02T10:10:45.066Z,102726.13
2023-03-02T10:13:17.729Z,102741.06
2023-03-02T10:16:11.592Z,102724.91
2023-03-02T10:18:47.198Z,102687.81
2023-03-02T10:21:43.191Z,102727.91
2023-03-02T10:24:47.721Z,102722.72
2023-03-02T10:27:39.305Z,102720.78
2023-03-02T10:30:31.996Z,102725.28
2023-03-02T10:33:04.545Z,102685.63
2023-03-02T10:35:32.306Z,102730.69
2023-03-02T10:38:13.913Z,102737.09
2023-03-02T10:40:53.181Z,102736.16
2023-03-02T10:43:37.696Z,102718.41
2023-03-02T10:46:09.409Z,102714.31
2023-03-02T10:48:56.638Z,102729.84
2023-03-02T10:51:32.549Z,102727.25
2023-03-02T10:54:14.268Z,102689.97
2023-03-02T10:56:52.275Z,102719.53
2023-03-02T10:59:25.317Z,102709.19
2023-03-02T11:02:03.174Z,102698.13
2023-03-02T11:04:31.119Z,102706.84
2023-03-02T11:07:09.145Z,102702.09
2023-03-02T11:09:35.827Z,102710.19
2023-03-02T11:12:03.090Z,102718.59
2023-03-02T11:14:30.361Z,102716.59
2023-03-02T11:16:57.326Z,102712.88
2023-03-02T11:19:44.477Z,102713.38
2023-03-02T11:22:17.209Z,102709.47
2023-03-02T11:24:52.089Z,102710.56
2023-03-02T11:27:27.822Z,102700.84
2023-03-02T11:29:57.849Z,102705.38
2023-03-02T11:32:43.513Z,102677.56
2023-03-02T11:35:22.889Z,102701.56
2023-03-02T11:37:55.519Z,102674.84
2023-03-02T11:40:49.770Z,102685.19
2023-03-02T11:43:16.968Z,102696.34
2023-03-02T11:45:51.133Z,102680.72
2023-03-02T11:48:27.089Z,102685.63
2023-03-02T11:51:04.654Z,102677.94
2023-03-02T11:53:44.322Z,102687.28
2023-03-02T11:56:11.877Z,102680.50
2023-03-02T11:58:39.792Z,102677.78
2023-03-02T12:01:21.719Z,102672.41
2023-03-02T12:03:48.619Z,102673.13
2023-03-02T12:06:15.596Z,102671.56
2023-03-02T12:08:45.867Z,102672.88
2023-03-02T12:11:21.821Z,102675.06
2023-03-02T12:14:25.130Z,102645.88
2023-03-02T12:17:03.728Z,102657.94
2023-03-02T12:19:41.726Z,102656.09
2023-03-02T12:22:12.701Z,102654.84
2023-03-02T12:24:44.547Z,102655.34
2023-03-02T12:27:17.140Z,102650.66
2023-03-02T12:29:57.397Z,102641.03
2023-03-02T12:32:30.654Z,102651.28
2023-03-02T12:35:03.316Z,102647.94
2023-03-02T12:37:40.778Z,102646.41
2023-03-02T12:40:10.856Z,102645.06
2023-03-02T12:42:55.663Z,102637.41
2023-03-02T12:45:28.362Z,102637.66
2023-03-02T12:48:33.523Z,102628.56
2023-03-02T12:51:02.727Z,102632.84
2023-03-02T12:53:30.053Z,102622.38
2023-03-02T12:55:57.333Z,102619.91
2023-03-02T12:58:28.011Z,102620.16
2023-03-02T13:01:00.290Z,102618.31
2023-03-02T13:03:30.224Z,102620.22
2023-03-02T13:06:28.174Z,102608.50
2023-03-02T13:08:57.467Z,102602.09
2023-03-02T13:11:36.293Z,102598.06
2023-03-02T13:14:22.806Z,102591.81
2023-03-02T13:16:59.302Z,102592.63
2023-03-02T13:19:27.602Z,102592.47
2023-03-02T13:21:56.997Z,102602.38
2023-03-02T13:24:46.816Z,102600.94
2023-03-02T13:27:21.163Z,102598.13
2023-03-02T13:29:49.282Z,102594.44
2023-03-02T13:32:36.307Z,102591.16
2023-03-02T13:35:03.714Z,102572.06
2023-03-02T13:37:41.076Z,102574.22
2023-03-02T13:40:30.253Z,102590.44
2023-03-02T13:42:57.632Z,102582.69
2023-03-02T13:45:32.184Z,102585.09
2023-03-02T13:48:01.274Z,102583.28
2023-03-02T13:50:32.662Z,102582.41
2023-03-02T13:53:05.713Z,102577.03
2023-03-02T13:55:33.490Z,102573.03
2023-03-02T13:58:01.237Z,102572.13
2023-03-02T14:00:32.927Z,102568.38
2023-03-02T14:03:00.460Z,102565.44
2023-03-02T14:05:33.617Z,102562.06
2023-03-02T14:08:01.219Z,102556.00
2023-03-02T14:10:28.633Z,102551.03
2023-03-02T14:13:06.296Z,102547.84
2023-03-02T14:15:34.542Z,102546.91
2023-03-02T14:18:01.596Z,102547.69
2023-03-02T14:20:28.742Z,102546.88
2023-03-02T14:22:55.701Z,102551.72
2023-03-02T14:25:25.486Z,102549.53
2023-03-02T14:27:52.320Z,102539.44
2023-03-02T14:30:21.437Z,102545.34
2023-03-02T14:32:48.678Z,102543.75
2023-03-02T14:35:17.046Z,102543.50
2023-03-02T14:37:48.534Z,102546.88
2023-03-02T14:40:28.426Z,102534.06
2023-03-02T14:42:55.730Z,102542.75
2023-03-02T14:45:23.402Z,102533.88
2023-03-02T14:47:50.440Z,102539.56
2023-03-02T14:50:17.665Z,102539.06
2023-03-02T14:52:48.075Z,102535.53
2023-03-02T14:55:26.096Z,102531.28
2023-03-02T14:57:59.163Z,102534.25
2023-03-02T15:00:27.203Z,102523.13
2023-03-02T15:02:57.438Z,102524.19
2023-03-02T15:05:24.321Z,102525.72
2023-03-02T15:07:53.348Z,102527.78
2023-03-02T15:10:22.312Z,102523.44
2023-03-02T15:12:49.542Z,102511.88
2023-03-02T15:15:16.691Z,102514.44
2023-03-02T15:17:43.637Z,102519.13
2023-03-02T15:20:15.911Z,102510.78
2023-03-02T15:22:43.113Z,102506.34
2023-03-02T15:25:10.642Z,102508.09
2023-03-02T15:27:37.837Z,102517.31
2023-03-02T15:30:05.392Z,102517.38
2023-03-02T15:32:32.362Z,102513.97
2023-03-02T15:34:59.593Z,102518.91
2023-03-02T15:37:29.458Z,102522.75
2023-03-02T15:39:56.873Z,102517.38
2023-03-02T15:42:24.119Z,102512.31
2023-03-02T15:44:51.187Z,102510.19
2023-03-02T15:47:18.274Z,102507.03
2023-03-02T15:49:46.691Z,102501.03
2023-03-02T15:52:13.689Z,102507.31
2023-03-02T15:54:42.773Z,102510.13
2023-03-02T15:57:10.375Z,102498.22
2023-03-02T15:59:37.469Z,102499.69
2023-03-02T16:02:04.802Z,102493.50
2023-03-02T16:04:34.159Z,102496.13
2023-03-02T16:07:01.570Z,102496.19
2023-03-02T16:09:31.497Z,102496.31
2023-03-02T16:12:02.023Z,102476.59
2023-03-02T16:14:28.971Z,102493.75
2023-03-02T16:16:55.981Z,102489.31
2023-03-02T16:19:23.067Z,102486.91
2023-03-02T16:21:49.978Z,102492.56
2023-03-02T16:24:19.623Z,102489.78
2023-03-02T16:26:51.148Z,102470.00
2023-03-02T16:29:18.140Z,102490.41
2023-03-02T16:31:48.605Z,102494.91
2023-03-02T16:34:15.713Z,102500.47
2023-03-02T16:36:45.905Z,102493.66
2023-03-02T16:39:13.524Z,102495.44
2023-03-02T16:41:48.293Z,102509.22
2023-03-02T16:44:16.252Z,102488.78
2023-03-02T16:46:43.894Z,102490.78
2023-03-02T16:49:12.002Z,102505.69
2023-03-02T16:51:39.506Z,102523.34
2023-03-02T16:54:06.889Z,102527.78
2023-03-02T16:56:33.985Z,102522.25
2023-03-02T16:59:00.969Z,102513.25
2023-03-02T17:01:29.468Z,102491.28
2023-03-02T17:03:58.480Z,102529.19
2023-03-02T17:06:27.855Z,102522.59
2023-03-02T17:08:57.654Z,102534.91
2023-03-02T17:11:24.884Z,102531.66
2023-03-02T17:13:51.664Z,102533.47
2023-03-02T17:16:21.291Z,102530.81
2023-03-02T17:18:48.110Z,102530.81
2023-03-02T17:21:16.661Z,102532.25
2023-03-02T17:23:43.943Z,102534.16
2023-03-02T17:26:11.026Z,102530.91
2023-03-02T17:28:38.747Z,102520.50
2023-03-02T17:31:06.027Z,102533.09
2023-03-02T17:33:34.231Z,102521.22
2023-03-02T17:36:07.605Z,102539.22
2023-03-02T17:38:34.596Z,102535.50
2023-03-02T17:41:03.777Z,102526.50
2023-03-02T17:43:35.739Z,102543.88
2023-03-02T17:46:20.618Z,102540.31
2023-03-02T17:48:49.501Z,102536.81
2023-03-02T17:51:17.609Z,102534.19
2023-03-02T17:53:45.756Z,102533.84
2023-03-02T17:56:14.165Z,102541.63
2023-03-02T17:58:45.074Z,102537.78
2023-03-02T18:01:13.997Z,102526.13
2023-03-02T18:03:41.150Z,102534.53
2023-03-02T18:06:08.000Z,102532.22
2023-03-02T18:08:38.083Z,102512.66
2023-03-02T18:11:06.197Z,102506.94
2023-03-02T18:13:33.286Z,102536.66
2023-03-02T18:16:00.254Z,102538.00
2023-03-02T18:18:27.384Z,102541.31
2023-03-02T18:20:55.366Z,102542.16
2023-03-02T18:23:22.465Z,102533.84
2023-03-02T18:25:49.676Z,102540.59
2023-03-02T18:28:16.621Z,102533.13
2023-03-02T18:30:43.856Z,102536.69
2023-03-02T18:33:11.106Z,102512.09
2023-03-02T18:35:38.575Z,102536.88
2023-03-02T18:38:06.240Z,102528.06
2023-03-02T18:40:33.695Z,102531.13
2023-03-02T18:43:00.549Z,102536.94
2023-03-02T18:45:31.184Z,102535.44
2023-03-02T18:48:00.099Z,102537.28
2023-03-02T18:50:28.646Z,102546.34
2023-03-02T18:52:55.470Z,102542.00
2023-03-02T18:55:24.695Z,102556.19
2023-03-02T18:57:54.183Z,102556.72
2023-03-02T19:00:27.358Z,102533.66
2023-03-02T19:02:56.144Z,102555.50
2023-03-02T19:05:25.475Z,102558.50
2023-03-02T19:07:52.642Z,102554.44
2023-03-02T19:10:21.468Z,102562.97
2023-03-02T19:12:48.606Z,102561.78
2023-03-02T19:15:15.829Z,102559.69
2023-03-02T19:17:43.777Z,102561.81
2023-03-02T19:20:16.385Z,102561.00
2023-03-02T19:22:43.624Z,102564.22
2023-03-02T19:25:11.238Z,102560.66
2023-03-02T19:27:38.311Z,102570.91
2023-03-02T19:30:06.841Z,102566.50
2023-03-02T19:32:33.998Z,102563.16
2023-03-02T19:35:02.836Z,102557.97
2023-03-02T19:37:29.592Z,102569.19
2023-03-02T19:39:56.289Z,102561.41
2023-03-02T19:42:26.356Z,102561.41
2023-03-02T19:44:55.103Z,102571.06
2023-03-02T19:47:22.001Z,102566.84
2023-03-02T19:49:48.843Z,102567.50
2023-03-02T19:52:15.726Z,102565.03
2023-03-02T19:54:45.641Z,102559.41
2023-03-02T19:57:12.501Z,102556.72
2023-03-02T19:59:41.251Z,102543.66
2023-03-02T20:02:08.277Z,102540.09
2023-03-02T20:04:35.570Z,102566.44
2023-03-02T20:07:03.277Z,102548.78
2023-03-02T20:09:30.316Z,102573.63
2023-03-02T20:11:58.817Z,102573.19
2023-03-02T20:14:33.834Z,102573.00
2023-03-02T20:17:04.892Z,102581.81
2023-03-02T20:19:32.247Z,102584.97
2023-03-02T20:21:59.522Z,102576.75
2023-03-02T20:24:26.416Z,102590.00
2023-03-02T20:26:55.229Z,102574.66
2023-03-02T20:29:22.119Z,102579.66
2023-03-02T20:31:49.159Z,102564.66
2023-03-02T20:34:16.818Z,102580.25
2023-03-02T20:36:44.956Z,102585.31
2023-03-02T20:39:31.657Z,102582.78
2023-03-02T20:41:59.273Z,102580.81
2023-03-02T20:44:27.145Z,102589.69
2023-03-02T20:46:57.988Z,102583.78
2023-03-02T20:49:27.262Z,102571.56
2023-03-02T20:51:55.216Z,102583.03
2023-03-02T20:54:25.809Z,102575.75
2023-03-02T20:56:53.001Z,102569.16
2023-03-02T20:59:20.835Z,102553.13
2023-03-02T21:01:48.016Z,102558.97
2023-03-02T21:04:17.840Z,102576.47
2023-03-02T21:06:46.328Z,102569.94
2023-03-02T21:09:13.992Z,102572.03
2023-03-02T21:11:41.172Z,102570.13
2023-03-02T21:14:08.255Z,102570.13
2023-03-02T21:16:38.785Z,102571.56
2023-03-02T21:19:13.683Z,102568.34
2023-03-02T21:21:42.378Z,102570.25
2023-03-02T21:24:11.532Z,102565.63
2023-03-02T21:26:38.920Z,102561.88
2023-03-02T21:29:06.608Z,102565.19
2023-03-02T21:31:33.855Z,102565.81
2023-03-02T21:34:00.934Z,102567.25
2023-03-02T21:36:28.684Z,102561.78
2023-03-02T21:38:56.371Z,102559.00
2023-03-02T21:41:23.938Z,102572.28
2023-03-02T21:43:51.818Z,102562.19
2023-03-02T21:46:23.087Z,102560.53
2023-03-02T21:48:51.699Z,102560.09
2023-03-02T21:51:19.374Z,102566.78
2023-03-02T21:53:49.769Z,102563.84
2023-03-02T21:56:20.936Z,102553.31
2023-03-02T21:58:53.155Z,102557.31
2023-03-02T22:01:21.383Z,102557.06
2023-03-02T22:03:48.400Z,102561.00
2023-03-02T22:06:18.468Z,102561.22
2023-03-02T22:08:45.589Z,102566.09
2023-03-02T22:11:19.639Z,102543.28
2023-03-02T22:13:47.958Z,102551.91
2023-03-02T22:16:16.404Z,102536.56
2023-03-02T22:18:47.804Z,102553.31
2023-03-02T22:21:35.893Z,102540.28
2023-03-02T22:24:08.595Z,102553.84
2023-03-02T22:26:41.535Z,102554.34
2023-03-02T22:29:26.816Z,102557.91
2023-03-02T22:31:56.573Z,102563.31
2023-03-02T22:34:31.026Z,102557.91
2023-03-02T22:37:12.625Z,102563.16
2023-03-02T22:39:42.023Z,102562.09
2023-03-02T22:42:21.037Z,102552.63
2023-03-02T22:45:15.745Z,102555.38
2023-03-02T22:47:44.367Z,102561.00
2023-03-02T22:50:30.405Z,102566.31
2023-03-02T22:52:59.694Z,102562.53
2023-03-02T22:55:35.850Z,102572.31
2023-03-02T22:58:18.035Z,102563.97
2023-03-02T23:00:45.623Z,102562.16
2023-03-02T23:03:18.504Z,102564.59
2023-03-02T23:05:49.290Z,102559.34
2023-03-02T23:08:30.032Z,102514.56
2023-03-02T23:10:59.051Z,102565.59
2023-03-02T23:13:38.224Z,102560.56
2023-03-02T23:16:26.897Z,102569.41
2023-03-02T23:18:56.405Z,102548.34
2023-03-02T23:21:38.948Z,102555.06
2023-03-02T23:24:07.607Z,102555.47
2023-03-02T23:26:39.731Z,102553.13
2023-03-02T23:29:07.129Z,102555.84
2023-03-02T23:31:34.145Z,102546.56
2023-03-02T23:34:01.026Z,102549.50
2023-03-02T23:36:28.571Z,102542.28
2023-03-02T23:38:55.448Z,102538.44
2023-03-02T23:41:22.519Z,102533.66
2023-03-02T23:43:49.556Z,102538.44
2023-03-02T23:46:16.481Z,102531.63
2023-03-02T23:48:43.804Z,102537.69
2023-03-02T23:51:13.784Z,102533.28
2023-03-02T23:53:40.821Z,102515.16
2023-03-02T23:56:08.333Z,102531.59
2023-03-02T23:58:36.596Z,102527.56
